メインページ
METAR-TAF:

METAR-TAF

空港 :

ヤクーツク空港

ヤクーツク, ロシア

緯度: 62-01N, 経度: 129-43E, 海抜: 103m

現時点の気象観測

当レポートは28分前の19:00(UTC)に作成
北西の風 6kt
気温 5°C
湿度 75%
気圧 1009 hPa
視程10km以上
1,500メートル以下は雲なし、積乱雲なし

METAR: UEEE 181900Z 32003MPS CAVOK 05/01 Q1009 R23L/09//60 NOSIG RMK QFE748

時間: 04:28 (19:28 UTC)

予報

当レポートは2時間28分前の17:00(UTC)に作成
予報は18日の 18時(UTC)から 19日の 24時(UTC)まで有効
北西の風 6kt、最大16ktの突風を伴う
視程10km以上
高度3000ftの雲は散在している
高度7000ftの千切れ雲あり
18日の 18時(UTC)から 19日の 02時(UTC)まで一時的に
変向風 2kt
視程: 0300m
高度200ftの

TAF: UEEE 181700Z 1818/1924 32003G08MPS 9999 SCT030 BKN070 TEMPO 1818/1902 VRB01MPS 0300 FG VV002

4,000以上の空港の気象観測と天気予報(METAR報とTAF報)

利用可能な観測所は地図上に黄色い丸と赤い丸で示す。

丸の上にカーソルを重ねると観測所名を参照できる。

次にクリックすると気象観測と天気予報を参照できる。

マップの切り替え:黒色「×」印の緑ボタンをクリックして拡大、「-」印の緑ボタンをクリックして縮小、緑色の三角印をクリックして隣りの地図に切り替え


METAR-TAF: